Geneseo, IL (61254)

10:13 PM CDT on August 29, 2016 (GMT -0500)
In Town | | Change Station

Elev 645 ft 41.44 °N, 90.15 °W | Updated 1 minute ago

Clear
Clear
72.8 °F
Feels Like 70 °F
N
0.0
Wind Variable Wind from NE
Gusts 0.0 mph

Today
High -- | Low -- °F
--% Chance of Precip.
Yesterday
High -- | Low -- °F
Precip. -- in
Pressure 30.15 in
Visibility 8.0 miles
Clouds Clear
Heat Index 70 °F
Dew Point 70 °F
Humidity 90%
Rainfall 0.04 in
Snow Depth Not available.
6:24 AM 7:37 PM
Waning Crescent, 5% visible
METAR KMLI 300252Z 10006KT 8SM CLR 23/22 A3016 RMK AO2 SLP210 T02330217 50007
Pressure 30.15 in
Visibility 8.0 miles
Clouds Clear
Heat Index 70 °F
Dew Point 70 °F
Humidity 90%
Rainfall 0.04 in
Snow Depth Not available.
6:24 AM 7:37 PM
Waning Crescent, 5% visible
METAR KMLI 300252Z 10006KT 8SM CLR 23/22 A3016 RMK AO2 SLP210 T02330217 50007

10-Day Weather Forecast

Almanac

Astronomy

Aug. 29, 2016 Rise Set
Actual Time
Civil Twilight
Nautical Twilight
Astronomical Twilight
Moon
Length of Visible Light
Length of Day
Tomorrow will be .
, % of the Moon is Illuminated

Today's Extremes

State Highs State Lows

Community

WunderPhotos

Upload Photos

1,935,773 photos uploaded!

WunderBlog® & News

Nearby

Air Quality

  Air Quality AQ Index Pollutant
Not available.

Snow Depth

Station Depth Elevation

Earthquake Activity

City Distance Mag. Time & Date
Minimum magnitude displayed is 2.5.

Coastal Water Temperatures

Place Temperature

Stations

Nearby Weather Stations

Station Location Temp. Windchill Dew Point Humidity Wind Precip. Elev Updated Type
                   

Watches & Warnings

There are currently no watches in effect.